sensor_id;sensor_type;location;lat;lon;timestamp;pressure;altitude;pressure_sealevel;temperature;humidity
59391;BME280;53405;57.012;40.984;2023-04-02T00:11:43;99719.72;;;5.08;89.79
59391;BME280;53405;57.012;40.984;2023-04-02T00:14:30;99716.47;;;4.96;90.29
59391;BME280;53405;57.012;40.984;2023-04-02T00:17:02;99714.94;;;5.03;90.79
59391;BME280;53405;57.012;40.984;2023-04-02T00:19:42;99707.41;;;5.00;90.83
59391;BME280;53405;57.012;40.984;2023-04-02T00:22:16;99710.75;;;4.93;90.93
59391;BME280;53405;57.012;40.984;2023-04-02T00:24:44;99711.19;;;5.06;91.13
59391;BME280;53405;57.012;40.984;2023-04-02T00:27:13;99700.31;;;4.93;91.19
59391;BME280;53405;57.012;40.984;2023-04-02T00:29:51;99704.94;;;4.99;91.40
59391;BME280;53405;57.012;40.984;2023-04-02T00:32:30;99708.34;;;4.99;91.81
59391;BME280;53405;57.012;40.984;2023-04-02T00:34:58;99711.94;;;5.16;90.98
59391;BME280;53405;57.012;40.984;2023-04-02T00:37:29;99706.66;;;5.08;90.83
59391;BME280;53405;57.012;40.984;2023-04-02T00:40:08;99718.72;;;5.09;91.48
59391;BME280;53405;57.012;40.984;2023-04-02T00:42:41;99722.16;;;5.10;91.58
59391;BME280;53405;57.012;40.984;2023-04-02T00:45:18;99708.38;;;5.17;91.54
59391;BME280;53405;57.012;40.984;2023-04-02T00:47:48;99717.97;;;5.17;90.76
59391;BME280;53405;57.012;40.984;2023-04-02T00:52:50;99724.38;;;5.40;90.56
59391;BME280;53405;57.012;40.984;2023-04-02T00:55:33;99724.31;;;5.32;90.83
59391;BME280;53405;57.012;40.984;2023-04-02T00:58:02;99716.88;;;5.19;91.17
59391;BME280;53405;57.012;40.984;2023-04-02T01:00:32;99727.84;;;5.41;90.73
59391;BME280;53405;57.012;40.984;2023-04-02T01:05:44;99695.06;;;5.11;91.08
59391;BME280;53405;57.012;40.984;2023-04-02T01:08:39;99728.72;;;5.32;91.15
59391;BME280;53405;57.012;40.984;2023-04-02T01:23:17;99714.84;;;5.49;90.44
59391;BME280;53405;57.012;40.984;2023-04-02T01:25:59;99713.66;;;5.25;91.46
59391;BME280;53405;57.012;40.984;2023-04-02T01:28:57;99719.84;;;5.42;91.15
59391;BME280;53405;57.012;40.984;2023-04-02T01:31:28;99695.31;;;5.17;91.77
59391;BME280;53405;57.012;40.984;2023-04-02T01:33:56;99716.31;;;5.52;90.87
59391;BME280;53405;57.012;40.984;2023-04-02T01:39:22;99725.69;;;5.63;90.92
59391;BME280;53405;57.012;40.984;2023-04-02T01:44:53;99724.31;;;5.32;92.00
59391;BME280;53405;57.012;40.984;2023-04-02T01:47:25;99715.38;;;5.17;92.80
59391;BME280;53405;57.012;40.984;2023-04-02T01:50:11;99733.63;;;5.17;93.03
59391;BME280;53405;57.012;40.984;2023-04-02T01:52:42;99725.91;;;5.25;93.04
59391;BME280;53405;57.012;40.984;2023-04-02T01:55:16;99729.31;;;5.25;93.69
59391;BME280;53405;57.012;40.984;2023-04-02T01:57:49;99728.81;;;5.22;93.59
59391;BME280;53405;57.012;40.984;2023-04-02T02:00:18;99742.66;;;5.40;93.10
59391;BME280;53405;57.012;40.984;2023-04-02T02:02:50;99740.19;;;5.39;92.83
59391;BME280;53405;57.012;40.984;2023-04-02T02:05:20;99740.03;;;5.40;92.53
59391;BME280;53405;57.012;40.984;2023-04-02T02:07:55;99730.91;;;5.36;92.55
59391;BME280;53405;57.012;40.984;2023-04-02T02:10:35;99742.75;;;5.49;92.52
59391;BME280;53405;57.012;40.984;2023-04-02T02:13:05;99739.44;;;5.47;92.09
59391;BME280;53405;57.012;40.984;2023-04-02T02:15:34;99736.41;;;5.33;92.23
59391;BME280;53405;57.012;40.984;2023-04-02T02:18:03;99751.38;;;5.31;92.82
59391;BME280;53405;57.012;40.984;2023-04-02T02:20:33;99749.25;;;5.27;93.35
59391;BME280;53405;57.012;40.984;2023-04-02T02:23:01;99738.81;;;5.27;93.09
59391;BME280;53405;57.012;40.984;2023-04-02T02:25:32;99738.97;;;5.25;93.32
59391;BME280;53405;57.012;40.984;2023-04-02T02:30:56;99752.91;;;5.16;93.67
59391;BME280;53405;57.012;40.984;2023-04-02T02:33:27;99757.38;;;5.23;94.29
59391;BME280;53405;57.012;40.984;2023-04-02T02:36:06;99758.50;;;5.21;94.46
59391;BME280;53405;57.012;40.984;2023-04-02T02:39:15;99752.00;;;5.25;94.22
59391;BME280;53405;57.012;40.984;2023-04-02T02:42:30;99746.03;;;5.33;94.05
59391;BME280;53405;57.012;40.984;2023-04-02T02:45:01;99724.16;;;5.34;93.49
59391;BME280;53405;57.012;40.984;2023-04-02T02:47:32;99755.41;;;5.43;93.86
59391;BME280;53405;57.012;40.984;2023-04-02T02:50:06;99753.56;;;5.36;93.60
59391;BME280;53405;57.012;40.984;2023-04-02T02:52:36;99751.69;;;5.28;94.48
59391;BME280;53405;57.012;40.984;2023-04-02T02:55:18;99741.31;;;5.18;94.46
59391;BME280;53405;57.012;40.984;2023-04-02T02:58:19;99750.19;;;5.43;94.79
59391;BME280;53405;57.012;40.984;2023-04-02T03:01:28;99761.94;;;5.39;94.75
59391;BME280;53405;57.012;40.984;2023-04-02T03:03:58;99763.78;;;5.47;94.56
59391;BME280;53405;57.012;40.984;2023-04-02T03:06:27;99771.63;;;5.47;93.90
59391;BME280;53405;57.012;40.984;2023-04-02T03:09:15;99773.84;;;5.42;93.94
59391;BME280;53405;57.012;40.984;2023-04-02T03:11:54;99771.84;;;5.36;94.32
59391;BME280;53405;57.012;40.984;2023-04-02T03:14:33;99772.28;;;5.31;95.37
59391;BME280;53405;57.012;40.984;2023-04-02T03:17:11;99746.53;;;5.18;95.15
59391;BME280;53405;57.012;40.984;2023-04-02T03:19:46;99783.50;;;5.41;95.46
59391;BME280;53405;57.012;40.984;2023-04-02T03:22:28;99788.72;;;5.41;95.12
59391;BME280;53405;57.012;40.984;2023-04-02T03:25:16;99792.00;;;5.61;94.46
59391;BME280;53405;57.012;40.984;2023-04-02T03:27:53;99799.22;;;5.50;94.90
59391;BME280;53405;57.012;40.984;2023-04-02T03:30:45;99794.44;;;5.45;94.71
59391;BME280;53405;57.012;40.984;2023-04-02T03:35:57;99799.13;;;5.59;94.88
59391;BME280;53405;57.012;40.984;2023-04-02T03:39:08;99800.91;;;5.77;94.04
59391;BME280;53405;57.012;40.984;2023-04-02T03:41:55;99806.47;;;5.56;94.78
59391;BME280;53405;57.012;40.984;2023-04-02T03:44:31;99797.28;;;5.70;94.46
59391;BME280;53405;57.012;40.984;2023-04-02T03:47:08;99809.91;;;5.74;94.01
59391;BME280;53405;57.012;40.984;2023-04-02T03:49:45;99794.50;;;5.53;94.18
59391;BME280;53405;57.012;40.984;2023-04-02T03:52:25;99804.00;;;5.54;94.60
59391;BME280;53405;57.012;40.984;2023-04-02T03:54:58;99797.91;;;5.46;95.55
59391;BME280;53405;57.012;40.984;2023-04-02T03:58:16;99797.34;;;5.42;95.63
59391;BME280;53405;57.012;40.984;2023-04-02T04:03:37;99802.69;;;5.50;96.31
59391;BME280;53405;57.012;40.984;2023-04-02T04:06:11;99808.94;;;5.57;96.23
59391;BME280;53405;57.012;40.984;2023-04-02T04:08:55;99809.44;;;5.61;95.98
59391;BME280;53405;57.012;40.984;2023-04-02T04:11:29;99817.22;;;5.71;95.44
59391;BME280;53405;57.012;40.984;2023-04-02T04:14:05;99819.00;;;5.70;94.43
59391;BME280;53405;57.012;40.984;2023-04-02T04:19:23;99817.38;;;5.69;95.00
59391;BME280;53405;57.012;40.984;2023-04-02T04:22:22;99815.06;;;5.66;94.85
59391;BME280;53405;57.012;40.984;2023-04-02T04:25:17;99824.81;;;5.64;95.52
59391;BME280;53405;57.012;40.984;2023-04-02T04:27:54;99826.78;;;5.62;95.78
59391;BME280;53405;57.012;40.984;2023-04-02T04:30:36;99831.09;;;5.53;96.05
59391;BME280;53405;57.012;40.984;2023-04-02T04:33:20;99819.75;;;5.63;95.62
59391;BME280;53405;57.012;40.984;2023-04-02T04:35:58;99823.03;;;5.65;95.85
59391;BME280;53405;57.012;40.984;2023-04-02T04:38:33;99820.03;;;5.59;95.89
59391;BME280;53405;57.012;40.984;2023-04-02T04:41:04;99827.88;;;5.59;96.19
59391;BME280;53405;57.012;40.984;2023-04-02T04:43:51;99825.34;;;5.68;95.82
59391;BME280;53405;57.012;40.984;2023-04-02T04:46:54;99831.59;;;5.75;95.79
59391;BME280;53405;57.012;40.984;2023-04-02T04:49:40;99839.09;;;5.70;96.16
59391;BME280;53405;57.012;40.984;2023-04-02T04:52:28;99842.06;;;5.75;95.96
59391;BME280;53405;57.012;40.984;2023-04-02T04:54:57;99838.19;;;5.79;96.16
59391;BME280;53405;57.012;40.984;2023-04-02T04:57:31;99840.81;;;5.79;95.92
59391;BME280;53405;57.012;40.984;2023-04-02T05:00:32;99841.91;;;5.94;95.22
59391;BME280;53405;57.012;40.984;2023-04-02T05:03:12;99841.69;;;5.88;95.40
59391;BME280;53405;57.012;40.984;2023-04-02T05:05:43;99848.09;;;5.93;95.06
59391;BME280;53405;57.012;40.984;2023-04-02T05:08:20;99848.66;;;5.97;94.45
59391;BME280;53405;57.012;40.984;2023-04-02T05:10:52;99831.63;;;5.93;94.75
59391;BME280;53405;57.012;40.984;2023-04-02T05:13:36;99848.41;;;5.90;94.87
59391;BME280;53405;57.012;40.984;2023-04-02T05:16:17;99852.44;;;5.85;94.79
59391;BME280;53405;57.012;40.984;2023-04-02T05:21:41;99847.06;;;5.86;95.40
59391;BME280;53405;57.012;40.984;2023-04-02T05:26:49;99855.69;;;5.96;95.17
59391;BME280;53405;57.012;40.984;2023-04-02T05:29:30;99849.06;;;5.92;94.73
59391;BME280;53405;57.012;40.984;2023-04-02T05:32:22;99864.59;;;5.94;94.63
59391;BME280;53405;57.012;40.984;2023-04-02T05:34:53;99858.72;;;5.92;94.99
59391;BME280;53405;57.012;40.984;2023-04-02T05:37:25;99859.47;;;6.02;94.25
59391;BME280;53405;57.012;40.984;2023-04-02T05:39:58;99859.69;;;6.09;94.00
59391;BME280;53405;57.012;40.984;2023-04-02T05:42:31;99856.63;;;6.13;93.61
59391;BME280;53405;57.012;40.984;2023-04-02T05:47:54;99852.66;;;6.09;93.34
59391;BME280;53405;57.012;40.984;2023-04-02T05:50:45;99855.34;;;6.18;93.67
59391;BME280;53405;57.012;40.984;2023-04-02T05:53:33;99854.16;;;6.12;93.11
59391;BME280;53405;57.012;40.984;2023-04-02T05:58:37;99840.72;;;6.07;93.02
59391;BME280;53405;57.012;40.984;2023-04-02T06:04:05;99863.94;;;6.10;93.65
59391;BME280;53405;57.012;40.984;2023-04-02T06:12:03;99874.63;;;6.17;93.62
59391;BME280;53405;57.012;40.984;2023-04-02T06:14:35;99876.88;;;6.38;92.65
59391;BME280;53405;57.012;40.984;2023-04-02T06:17:03;99874.69;;;6.25;92.30
59391;BME280;53405;57.012;40.984;2023-04-02T06:19:36;99869.16;;;6.28;92.11
59391;BME280;53405;57.012;40.984;2023-04-02T06:22:31;99887.75;;;6.25;92.71
59391;BME280;53405;57.012;40.984;2023-04-02T06:25:14;99880.41;;;6.28;93.07
59391;BME280;53405;57.012;40.984;2023-04-02T06:27:45;99890.03;;;6.20;93.79
59391;BME280;53405;57.012;40.984;2023-04-02T06:30:22;99897.22;;;6.26;93.53
59391;BME280;53405;57.012;40.984;2023-04-02T06:32:54;99892.38;;;6.31;93.15
59391;BME280;53405;57.012;40.984;2023-04-02T06:35:23;99894.13;;;6.48;92.34
59391;BME280;53405;57.012;40.984;2023-04-02T06:38:02;99866.69;;;6.26;92.20
59391;BME280;53405;57.012;40.984;2023-04-02T06:52:02;99913.69;;;6.62;91.83
59391;BME280;53405;57.012;40.984;2023-04-02T06:54:31;99895.69;;;6.59;91.38
59391;BME280;53405;57.012;40.984;2023-04-02T06:57:05;99902.13;;;6.73;91.51
59391;BME280;53405;57.012;40.984;2023-04-02T06:59:39;99908.06;;;6.83;90.86
59391;BME280;53405;57.012;40.984;2023-04-02T07:04:44;99903.56;;;6.94;90.38
59391;BME280;53405;57.012;40.984;2023-04-02T07:07:13;99904.41;;;7.02;89.47
59391;BME280;53405;57.012;40.984;2023-04-02T07:09:43;99902.25;;;6.98;89.50
59391;BME280;53405;57.012;40.984;2023-04-02T07:12:12;99906.91;;;7.12;89.40
59391;BME280;53405;57.012;40.984;2023-04-02T07:14:40;99912.13;;;7.12;89.23
59391;BME280;53405;57.012;40.984;2023-04-02T07:17:15;99906.25;;;7.10;89.22
59391;BME280;53405;57.012;40.984;2023-04-02T07:19:44;99904.75;;;7.08;88.60
59391;BME280;53405;57.012;40.984;2023-04-02T07:22:18;99925.59;;;7.17;88.36
59391;BME280;53405;57.012;40.984;2023-04-02T07:24:49;99911.34;;;7.20;88.37
59391;BME280;53405;57.012;40.984;2023-04-02T07:27:17;99926.16;;;7.37;87.29
59391;BME280;53405;57.012;40.984;2023-04-02T07:29:44;99933.53;;;7.42;87.02
59391;BME280;53405;57.012;40.984;2023-04-02T07:32:12;99928.84;;;7.54;86.54
59391;BME280;53405;57.012;40.984;2023-04-02T07:34:40;99931.00;;;7.67;85.87
59391;BME280;53405;57.012;40.984;2023-04-02T07:37:12;99942.94;;;7.69;85.82
59391;BME280;53405;57.012;40.984;2023-04-02T07:39:40;99925.75;;;7.67;84.64
59391;BME280;53405;57.012;40.984;2023-04-02T07:42:08;99929.66;;;7.63;86.04
59391;BME280;53405;57.012;40.984;2023-04-02T07:44:36;99926.94;;;7.81;84.82
59391;BME280;53405;57.012;40.984;2023-04-02T07:47:03;99922.66;;;7.80;84.09
59391;BME280;53405;57.012;40.984;2023-04-02T07:49:31;99927.59;;;7.91;82.64
59391;BME280;53405;57.012;40.984;2023-04-02T07:52:00;99927.41;;;8.01;83.52
59391;BME280;53405;57.012;40.984;2023-04-02T07:54:27;99930.25;;;8.16;83.34
59391;BME280;53405;57.012;40.984;2023-04-02T07:56:56;99930.56;;;8.21;81.29
59391;BME280;53405;57.012;40.984;2023-04-02T07:59:23;99933.53;;;8.34;80.66
59391;BME280;53405;57.012;40.984;2023-04-02T08:01:51;99934.03;;;8.46;79.59
59391;BME280;53405;57.012;40.984;2023-04-02T08:04:21;99936.47;;;8.14;79.76
59391;BME280;53405;57.012;40.984;2023-04-02T08:06:49;99943.16;;;7.92;80.01
59391;BME280;53405;57.012;40.984;2023-04-02T08:09:16;99934.63;;;7.90;80.11
59391;BME280;53405;57.012;40.984;2023-04-02T08:11:43;99937.75;;;7.94;82.08
59391;BME280;53405;57.012;40.984;2023-04-02T08:14:12;99937.75;;;8.02;80.86
59391;BME280;53405;57.012;40.984;2023-04-02T08:16:49;99907.59;;;8.14;79.78
59391;BME280;53405;57.012;40.984;2023-04-02T08:19:18;99940.22;;;8.28;79.86
59391;BME280;53405;57.012;40.984;2023-04-02T08:21:46;99943.50;;;8.22;79.84
59391;BME280;53405;57.012;40.984;2023-04-02T08:24:17;99937.91;;;8.42;79.83
59391;BME280;53405;57.012;40.984;2023-04-02T08:26:46;99921.69;;;8.38;78.23
59391;BME280;53405;57.012;40.984;2023-04-02T08:29:14;99935.00;;;8.20;79.41
59391;BME280;53405;57.012;40.984;2023-04-02T08:31:41;99937.44;;;8.38;79.57
59391;BME280;53405;57.012;40.984;2023-04-02T08:34:08;99926.31;;;8.44;80.34
59391;BME280;53405;57.012;40.984;2023-04-02T08:36:38;99941.53;;;8.82;77.40
59391;BME280;53405;57.012;40.984;2023-04-02T08:39:07;99941.06;;;8.62;78.00
59391;BME280;53405;57.012;40.984;2023-04-02T08:42:00;99945.84;;;8.58;77.60
59391;BME280;53405;57.012;40.984;2023-04-02T08:47:25;99928.44;;;8.49;77.46
59391;BME280;53405;57.012;40.984;2023-04-02T08:50:02;99946.63;;;8.67;77.60
59391;BME280;53405;57.012;40.984;2023-04-02T08:52:35;99942.72;;;8.55;78.14
59391;BME280;53405;57.012;40.984;2023-04-02T08:55:16;99947.97;;;8.55;78.56
59391;BME280;53405;57.012;40.984;2023-04-02T08:57:56;99952.72;;;8.59;78.97
59391;BME280;53405;57.012;40.984;2023-04-02T09:00:35;99953.19;;;8.71;77.24
59391;BME280;53405;57.012;40.984;2023-04-02T09:03:29;99950.59;;;8.63;77.04
59391;BME280;53405;57.012;40.984;2023-04-02T09:05:58;99950.22;;;8.41;76.58
59391;BME280;53405;57.012;40.984;2023-04-02T09:08:28;99956.63;;;8.30;77.85
59391;BME280;53405;57.012;40.984;2023-04-02T09:13:43;99958.63;;;8.45;76.33
59391;BME280;53405;57.012;40.984;2023-04-02T09:16:14;99967.81;;;8.74;75.48
59391;BME280;53405;57.012;40.984;2023-04-02T09:18:43;99942.88;;;8.61;75.16
59391;BME280;53405;57.012;40.984;2023-04-02T09:23:48;99976.00;;;8.79;74.49
59391;BME280;53405;57.012;40.984;2023-04-02T09:28:49;99966.00;;;8.25;75.52
59391;BME280;53405;57.012;40.984;2023-04-02T09:31:30;99961.06;;;8.38;77.44
59391;BME280;53405;57.012;40.984;2023-04-02T09:34:00;99977.44;;;8.40;76.32
59391;BME280;53405;57.012;40.984;2023-04-02T09:36:38;99977.44;;;8.40;77.56
59391;BME280;53405;57.012;40.984;2023-04-02T09:39:16;99973.88;;;8.49;77.15
59391;BME280;53405;57.012;40.984;2023-04-02T09:41:44;99977.66;;;8.63;75.53
59391;BME280;53405;57.012;40.984;2023-04-02T09:44:24;99980.91;;;8.65;74.82
59391;BME280;53405;57.012;40.984;2023-04-02T09:46:57;99986.16;;;8.82;76.52
59391;BME280;53405;57.012;40.984;2023-04-02T09:49:37;99960.25;;;8.54;75.55
59391;BME280;53405;57.012;40.984;2023-04-02T09:52:27;99988.66;;;8.75;74.95
59391;BME280;53405;57.012;40.984;2023-04-02T09:55:18;99967.13;;;8.80;74.53
59391;BME280;53405;57.012;40.984;2023-04-02T09:57:47;99994.00;;;8.98;73.98
59391;BME280;53405;57.012;40.984;2023-04-02T10:06:06;99996.34;;;8.85;74.91
59391;BME280;53405;57.012;40.984;2023-04-02T10:08:36;99998.31;;;8.75;76.24
59391;BME280;53405;57.012;40.984;2023-04-02T10:11:11;99998.31;;;8.83;74.84
59391;BME280;53405;57.012;40.984;2023-04-02T10:16:32;99993.88;;;8.83;75.76
59391;BME280;53405;57.012;40.984;2023-04-02T10:19:29;99993.22;;;8.90;76.01
59391;BME280;53405;57.012;40.984;2023-04-02T10:22:03;99998.28;;;8.99;73.57
59391;BME280;53405;57.012;40.984;2023-04-02T10:24:31;100002.72;;;8.99;74.73
59391;BME280;53405;57.012;40.984;2023-04-02T10:27:20;100009.44;;;9.01;73.36
59391;BME280;53405;57.012;40.984;2023-04-02T10:35:01;100007.69;;;8.69;74.93
59391;BME280;53405;57.012;40.984;2023-04-02T10:40:03;99998.78;;;8.86;74.10
59391;BME280;53405;57.012;40.984;2023-04-02T10:50:30;100016.53;;;8.84;74.01
59391;BME280;53405;57.012;40.984;2023-04-02T10:53:18;100023.25;;;8.79;74.25
59391;BME280;53405;57.012;40.984;2023-04-02T10:55:53;100031.94;;;8.79;73.97
59391;BME280;53405;57.012;40.984;2023-04-02T10:58:24;100027.69;;;8.70;74.42
59391;BME280;53405;57.012;40.984;2023-04-02T11:01:02;100020.00;;;8.77;75.64
59391;BME280;53405;57.012;40.984;2023-04-02T11:03:38;100027.38;;;8.81;73.60
59391;BME280;53405;57.012;40.984;2023-04-02T11:06:25;100025.53;;;8.90;73.63
59391;BME280;53405;57.012;40.984;2023-04-02T11:08:58;100029.31;;;8.79;73.32
59391;BME280;53405;57.012;40.984;2023-04-02T11:11:42;100007.84;;;8.59;75.17
59391;BME280;53405;57.012;40.984;2023-04-02T11:14:17;100001.44;;;8.62;74.22
59391;BME280;53405;57.012;40.984;2023-04-02T11:16:51;100035.41;;;8.88;73.62
59391;BME280;53405;57.012;40.984;2023-04-02T11:19:20;100033.25;;;8.92;73.24
59391;BME280;53405;57.012;40.984;2023-04-02T11:21:58;100034.56;;;8.79;73.91
59391;BME280;53405;57.012;40.984;2023-04-02T11:29:50;100047.22;;;8.76;73.32
59391;BME280;53405;57.012;40.984;2023-04-02T11:42:43;100046.06;;;8.62;74.42
59391;BME280;53405;57.012;40.984;2023-04-02T11:50:36;100046.22;;;8.60;75.56
59391;BME280;53405;57.012;40.984;2023-04-02T11:53:19;100040.31;;;8.58;73.88
59391;BME280;53405;57.012;40.984;2023-04-02T12:09:49;100015.19;;;8.39;75.47
59391;BME280;53405;57.012;40.984;2023-04-02T12:12:25;100030.63;;;8.50;74.09
59391;BME280;53405;57.012;40.984;2023-04-02T12:14:55;100025.22;;;8.44;75.14
59391;BME280;53405;57.012;40.984;2023-04-02T12:20:20;100025.38;;;8.50;75.38
59391;BME280;53405;57.012;40.984;2023-04-02T12:22:51;100030.81;;;8.57;74.77
59391;BME280;53405;57.012;40.984;2023-04-02T12:27:47;100038.53;;;8.75;73.33
59391;BME280;53405;57.012;40.984;2023-04-02T12:30:21;100020.47;;;8.56;73.91
59391;BME280;53405;57.012;40.984;2023-04-02T12:32:49;100042.13;;;8.58;73.62
59391;BME280;53405;57.012;40.984;2023-04-02T12:37:55;100036.88;;;8.49;74.77
59391;BME280;53405;57.012;40.984;2023-04-02T12:40:25;100033.44;;;8.57;73.92
59391;BME280;53405;57.012;40.984;2023-04-02T12:42:53;100033.94;;;8.61;74.55
59391;BME280;53405;57.012;40.984;2023-04-02T12:45:30;100026.22;;;8.59;74.93
59391;BME280;53405;57.012;40.984;2023-04-02T12:48:02;100040.16;;;8.76;73.52
59391;BME280;53405;57.012;40.984;2023-04-02T12:50:32;100045.91;;;8.80;74.46
59391;BME280;53405;57.012;40.984;2023-04-02T12:52:59;100032.59;;;8.73;73.57
59391;BME280;53405;57.012;40.984;2023-04-02T12:55:27;100033.59;;;8.64;73.45
59391;BME280;53405;57.012;40.984;2023-04-02T12:57:55;100035.72;;;8.60;74.36
59391;BME280;53405;57.012;40.984;2023-04-02T13:02:59;99998.28;;;8.42;74.27
59391;BME280;53405;57.012;40.984;2023-04-02T13:07:59;100007.19;;;8.57;73.86
59391;BME280;53405;57.012;40.984;2023-04-02T13:10:26;100034.25;;;8.74;74.13
59391;BME280;53405;57.012;40.984;2023-04-02T13:13:04;100029.47;;;8.86;74.52
59391;BME280;53405;57.012;40.984;2023-04-02T13:15:33;99995.84;;;8.73;73.51
59391;BME280;53405;57.012;40.984;2023-04-02T13:20:40;100028.47;;;8.95;74.83
59391;BME280;53405;57.012;40.984;2023-04-02T13:25:53;100031.28;;;8.85;72.91
59391;BME280;53405;57.012;40.984;2023-04-02T13:28:21;100022.44;;;8.78;73.01
59391;BME280;53405;57.012;40.984;2023-04-02T13:30:53;100024.25;;;8.70;73.18
59391;BME280;53405;57.012;40.984;2023-04-02T13:33:21;100024.41;;;8.68;74.22
59391;BME280;53405;57.012;40.984;2023-04-02T13:35:48;99994.88;;;8.49;74.03
59391;BME280;53405;57.012;40.984;2023-04-02T13:38:15;100010.66;;;8.58;74.99
59391;BME280;53405;57.012;40.984;2023-04-02T13:40:42;100003.09;;;8.63;74.31
59391;BME280;53405;57.012;40.984;2023-04-02T13:43:19;100005.41;;;8.58;74.89
59391;BME280;53405;57.012;40.984;2023-04-02T13:45:49;99934.84;;;8.13;75.03
59391;BME280;53405;57.012;40.984;2023-04-02T13:48:17;100010.97;;;8.55;74.42
59391;BME280;53405;57.012;40.984;2023-04-02T13:50:45;100010.75;;;8.40;74.64
59391;BME280;53405;57.012;40.984;2023-04-02T13:53:20;99976.66;;;8.31;74.87
59391;BME280;53405;57.012;40.984;2023-04-02T13:55:48;100008.19;;;8.56;75.44
59391;BME280;53405;57.012;40.984;2023-04-02T13:58:15;100010.63;;;8.49;75.58
59391;BME280;53405;57.012;40.984;2023-04-02T14:00:42;100004.06;;;8.54;74.97
59391;BME280;53405;57.012;40.984;2023-04-02T14:03:17;99977.63;;;8.30;75.62
59391;BME280;53405;57.012;40.984;2023-04-02T14:14:30;100004.88;;;8.54;74.36
59391;BME280;53405;57.012;40.984;2023-04-02T14:19:58;100007.97;;;8.41;74.90
59391;BME280;53405;57.012;40.984;2023-04-02T14:38:54;100006.97;;;8.26;76.00
59391;BME280;53405;57.012;40.984;2023-04-02T14:44:19;100012.03;;;8.11;76.90
59391;BME280;53405;57.012;40.984;2023-04-02T14:46:56;100012.53;;;8.23;75.86
59391;BME280;53405;57.012;40.984;2023-04-02T14:49:37;100018.94;;;8.20;75.61
59391;BME280;53405;57.012;40.984;2023-04-02T14:52:18;100025.50;;;8.24;77.07
59391;BME280;53405;57.012;40.984;2023-04-02T14:54:53;100019.44;;;8.24;75.77
59391;BME280;53405;57.012;40.984;2023-04-02T14:57:24;100000.06;;;8.17;76.05
59391;BME280;53405;57.012;40.984;2023-04-02T15:00:27;100010.75;;;8.23;76.56
59391;BME280;53405;57.012;40.984;2023-04-02T15:05:45;100024.19;;;8.20;75.27
59391;BME280;53405;57.012;40.984;2023-04-02T15:08:26;100023.03;;;8.14;76.31
59391;BME280;53405;57.012;40.984;2023-04-02T15:13:43;99989.72;;;7.99;76.52
59391;BME280;53405;57.012;40.984;2023-04-02T15:16:20;100004.16;;;8.11;75.75
59391;BME280;53405;57.012;40.984;2023-04-02T15:18:50;100028.25;;;8.06;76.49
59391;BME280;53405;57.012;40.984;2023-04-02T15:23:54;100023.50;;;8.10;77.74
59391;BME280;53405;57.012;40.984;2023-04-02T15:32:11;100021.50;;;8.04;77.15
59391;BME280;53405;57.012;40.984;2023-04-02T15:37:59;100024.50;;;8.09;76.21
59391;BME280;53405;57.012;40.984;2023-04-02T15:43:28;100027.56;;;7.96;76.45
59391;BME280;53405;57.012;40.984;2023-04-02T15:52:16;100040.66;;;7.96;77.86
59391;BME280;53405;57.012;40.984;2023-04-02T15:55:01;100006.34;;;7.65;78.21
59391;BME280;53405;57.012;40.984;2023-04-02T16:01:22;100049.31;;;7.80;78.13
59391;BME280;53405;57.012;40.984;2023-04-02T16:03:26;100061.44;;;7.81;78.65
59391;BME280;53405;57.012;40.984;2023-04-02T16:11:18;100047.00;;;7.77;79.08
59391;BME280;53405;57.012;40.984;2023-04-02T16:13:46;100065.91;;;7.89;78.86
59391;BME280;53405;57.012;40.984;2023-04-02T16:21:48;100065.03;;;7.80;78.12
59391;BME280;53405;57.012;40.984;2023-04-02T16:24:17;100073.69;;;7.72;79.17
59391;BME280;53405;57.012;40.984;2023-04-02T16:27:24;100068.50;;;7.81;79.90
59391;BME280;53405;57.012;40.984;2023-04-02T16:29:54;100073.06;;;7.78;78.71
59391;BME280;53405;57.012;40.984;2023-04-02T16:38:47;100078.13;;;7.72;80.08
59391;BME280;53405;57.012;40.984;2023-04-02T16:49:48;100081.81;;;7.61;79.62
59391;BME280;53405;57.012;40.984;2023-04-02T17:00:52;100077.22;;;7.55;80.60
59391;BME280;53405;57.012;40.984;2023-04-02T17:04:00;100078.41;;;7.60;79.42
59391;BME280;53405;57.012;40.984;2023-04-02T17:06:41;100078.44;;;7.42;80.67
59391;BME280;53405;57.012;40.984;2023-04-02T17:09:13;100078.13;;;7.46;80.24
59391;BME280;53405;57.012;40.984;2023-04-02T17:11:46;100082.28;;;7.56;80.51
59391;BME280;53405;57.012;40.984;2023-04-02T17:14:22;100084.72;;;7.50;80.80
59391;BME280;53405;57.012;40.984;2023-04-02T17:16:57;100089.34;;;7.56;79.25
59391;BME280;53405;57.012;40.984;2023-04-02T17:19:28;100083.59;;;7.52;80.30
59391;BME280;53405;57.012;40.984;2023-04-02T17:21:57;100091.41;;;7.44;79.63
59391;BME280;53405;57.012;40.984;2023-04-02T17:24:55;100091.47;;;7.52;80.86
59391;BME280;53405;57.012;40.984;2023-04-02T17:30:24;100091.09;;;7.47;80.93
59391;BME280;53405;57.012;40.984;2023-04-02T17:32:55;100089.66;;;7.53;80.72
59391;BME280;53405;57.012;40.984;2023-04-02T17:35:31;100088.56;;;7.64;80.46
59391;BME280;53405;57.012;40.984;2023-04-02T17:38:13;100091.19;;;7.64;80.41
59391;BME280;53405;57.012;40.984;2023-04-02T17:46:22;100091.81;;;7.57;79.60
59391;BME280;53405;57.012;40.984;2023-04-02T17:49:18;100097.38;;;7.54;80.35
59391;BME280;53405;57.012;40.984;2023-04-02T17:58:19;100099.09;;;7.46;79.27
59391;BME280;53405;57.012;40.984;2023-04-02T18:06:26;100091.97;;;7.30;80.30
59391;BME280;53405;57.012;40.984;2023-04-02T18:24:06;100095.00;;;7.17;81.53
59391;BME280;53405;57.012;40.984;2023-04-02T18:50:54;100085.28;;;7.09;80.99
59391;BME280;53405;57.012;40.984;2023-04-02T18:53:23;100073.34;;;7.07;80.86
59391;BME280;53405;57.012;40.984;2023-04-02T18:56:00;100063.47;;;7.00;81.10
59391;BME280;53405;57.012;40.984;2023-04-02T18:58:34;100075.66;;;7.10;82.16
59391;BME280;53405;57.012;40.984;2023-04-02T19:01:08;100052.53;;;7.05;82.00